createdAt,value
2018-06-19T00:00:31.431Z,99723.59
2018-06-19T00:03:00.571Z,99721.95
2018-06-19T00:05:30.838Z,99718.16
2018-06-19T00:08:01.402Z,99719.79
2018-06-19T00:10:30.687Z,99719.77
2018-06-19T00:12:59.405Z,99726.59
2018-06-19T00:15:28.183Z,99723.05
2018-06-19T00:18:02.122Z,99720.02
2018-06-19T00:20:30.965Z,99718.95
2018-06-19T00:22:59.693Z,99720.33
2018-06-19T00:25:28.416Z,99710.27
2018-06-19T00:27:57.246Z,99713.80
2018-06-19T00:30:25.980Z,99715.17
2018-06-19T00:32:54.722Z,99721.98
2018-06-19T00:35:23.470Z,99713.30
2018-06-19T00:37:52.225Z,99721.41
2018-06-19T00:40:20.954Z,99729.02
2018-06-19T00:42:49.681Z,99726.81
2018-06-19T00:45:18.412Z,99731.67
2018-06-19T00:47:47.158Z,99726.81
2018-06-19T00:50:15.889Z,99723.30
2018-06-19T00:52:44.642Z,99730.05
2018-06-19T00:55:13.394Z,99725.47
2018-06-19T00:57:42.133Z,99729.80
2018-06-19T01:00:10.865Z,99732.27
2018-06-19T01:02:39.595Z,99732.58
2018-06-19T01:05:08.371Z,99739.92
2018-06-19T01:07:37.105Z,99738.28
2018-06-19T01:10:05.834Z,99734.45
2018-06-19T01:12:34.561Z,99738.50
2018-06-19T01:15:03.313Z,99733.35
2018-06-19T01:17:32.037Z,99733.59
2018-06-19T01:20:00.728Z,99735.50
2018-06-19T01:22:29.465Z,99730.86
2018-06-19T01:24:58.166Z,99729.78
2018-06-19T01:27:26.902Z,99731.90
2018-06-19T01:29:55.612Z,99732.41
2018-06-19T01:32:24.317Z,99735.94
2018-06-19T01:34:53.072Z,99734.05
2018-06-19T01:37:21.799Z,99729.97
2018-06-19T01:39:50.548Z,99733.77
2018-06-19T01:42:19.256Z,99738.14
2018-06-19T01:44:48.134Z,99739.79
2018-06-19T01:47:16.845Z,99737.08
2018-06-19T01:49:45.541Z,99732.44
2018-06-19T01:52:14.287Z,99737.59
2018-06-19T01:54:43.004Z,99743.63
2018-06-19T01:57:11.765Z,99741.52
2018-06-19T01:59:40.657Z,99747.47
2018-06-19T02:02:09.385Z,99739.06
2018-06-19T02:04:38.281Z,99745.83
2018-06-19T02:07:07.150Z,99742.03
2018-06-19T02:09:35.858Z,99735.50
2018-06-19T02:12:04.564Z,99734.94
2018-06-19T02:14:33.286Z,99736.53
2018-06-19T02:17:02.144Z,99740.03
2018-06-19T02:19:30.845Z,99735.16
2018-06-19T02:21:59.566Z,99745.19
2018-06-19T02:24:28.305Z,99739.20
2018-06-19T02:26:57.037Z,99745.94
2018-06-19T02:29:25.822Z,99747.30
2018-06-19T02:31:54.573Z,99739.09
2018-06-19T02:34:23.320Z,99745.57
2018-06-19T02:36:52.040Z,99750.98
2018-06-19T02:39:20.749Z,99747.27
2018-06-19T02:41:49.523Z,99753.44
2018-06-19T02:44:18.250Z,99751.80
2018-06-19T02:46:47.041Z,99751.50
2018-06-19T02:49:15.810Z,99753.23
2018-06-19T02:51:44.707Z,99760.85
2018-06-19T02:54:13.485Z,99755.39
2018-06-19T02:56:42.237Z,99761.33
2018-06-19T02:59:10.950Z,99766.24
2018-06-19T03:01:39.739Z,99766.27
2018-06-19T03:04:08.462Z,99762.45
2018-06-19T03:06:37.214Z,99763.56
2018-06-19T03:09:08.397Z,99763.84
2018-06-19T03:11:37.248Z,99764.44
2018-06-19T03:14:06.324Z,99765.80
2018-06-19T03:16:35.041Z,99765.55
2018-06-19T03:19:04.019Z,99764.47
2018-06-19T03:21:33.066Z,99769.89
2018-06-19T03:24:01.787Z,99776.22
2018-06-19T03:26:30.458Z,99774.08
2018-06-19T03:28:59.145Z,99769.22
2018-06-19T03:31:27.840Z,99772.23
2018-06-19T03:33:56.567Z,99773.34
2018-06-19T03:36:30.509Z,99777.73
2018-06-19T03:38:59.234Z,99781.81
2018-06-19T03:41:27.955Z,99778.55
2018-06-19T03:43:56.675Z,99781.20
2018-06-19T03:46:25.401Z,99784.20
2018-06-19T03:48:54.147Z,99786.42
2018-06-19T03:51:22.845Z,99796.20
2018-06-19T03:53:51.659Z,99792.98
2018-06-19T03:56:20.358Z,99794.59
2018-06-19T03:58:49.169Z,99801.68
2018-06-19T04:01:18.198Z,99797.62
2018-06-19T04:03:46.889Z,99804.39
2018-06-19T04:06:15.602Z,99806.01
2018-06-19T04:08:44.286Z,99810.35
2018-06-19T04:11:13.016Z,99811.11
2018-06-19T04:13:41.748Z,99814.22
2018-06-19T04:16:10.470Z,99819.09
2018-06-19T04:18:39.205Z,99817.43
2018-06-19T04:21:07.925Z,99815.55
2018-06-19T04:23:36.717Z,99822.38
2018-06-19T04:26:05.610Z,99820.36
2018-06-19T04:28:34.320Z,99822.72
2018-06-19T04:31:03.193Z,99820.95
2018-06-19T04:33:31.931Z,99824.33
2018-06-19T04:36:00.691Z,99826.13
2018-06-19T04:38:29.403Z,99831.49
2018-06-19T04:40:58.121Z,99835.78
2018-06-19T04:43:26.856Z,99838.00
2018-06-19T04:45:55.571Z,99837.51
2018-06-19T04:48:24.309Z,99832.13
2018-06-19T04:50:53.068Z,99830.72
2018-06-19T04:53:21.790Z,99839.13
2018-06-19T04:55:50.795Z,99841.13
2018-06-19T04:58:19.590Z,99845.47
2018-06-19T05:00:48.297Z,99845.91
2018-06-19T05:03:17.008Z,99854.67
2018-06-19T05:05:45.774Z,99848.75
2018-06-19T05:08:14.493Z,99846.22
2018-06-19T05:10:43.246Z,99853.55
2018-06-19T05:13:11.954Z,99849.13
2018-06-19T05:15:40.671Z,99858.85
2018-06-19T05:18:09.366Z,99857.22
2018-06-19T05:20:38.133Z,99858.55
2018-06-19T05:23:06.910Z,99862.63
2018-06-19T05:25:35.640Z,99860.45
2018-06-19T05:28:04.501Z,99861.98
2018-06-19T05:30:33.267Z,99870.09
2018-06-19T05:33:02.002Z,99866.38
2018-06-19T05:35:30.717Z,99869.45
2018-06-19T05:37:59.470Z,99873.20
2018-06-19T05:40:28.279Z,99866.58
2018-06-19T05:42:57.009Z,99871.92
2018-06-19T05:45:25.893Z,99870.41
2018-06-19T05:47:54.603Z,99871.11
2018-06-19T05:50:23.356Z,99867.42
2018-06-19T05:52:52.146Z,99868.36
2018-06-19T05:55:20.890Z,99872.00
2018-06-19T05:57:49.634Z,99875.78
2018-06-19T06:00:18.343Z,99872.34
2018-06-19T06:02:47.049Z,99873.61
2018-06-19T06:05:15.794Z,99879.98
2018-06-19T06:07:44.498Z,99883.39
2018-06-19T06:10:13.297Z,99881.20
2018-06-19T06:12:42.013Z,99877.80
2018-06-19T06:15:10.713Z,99882.98
2018-06-19T06:17:39.458Z,99881.69
2018-06-19T06:20:08.248Z,99876.30
2018-06-19T06:22:37.031Z,99880.67
2018-06-19T06:25:05.766Z,99875.72
2018-06-19T06:27:34.449Z,99880.70
2018-06-19T06:30:03.162Z,99879.13
2018-06-19T06:32:31.865Z,99875.11
2018-06-19T06:35:00.564Z,99874.38
2018-06-19T06:37:29.261Z,99872.42
2018-06-19T06:39:58.153Z,99875.48
2018-06-19T06:42:26.929Z,99872.23
2018-06-19T06:44:55.677Z,99882.41
2018-06-19T06:47:24.366Z,99882.19
2018-06-19T06:49:53.129Z,99879.80
2018-06-19T06:52:21.859Z,99891.99
2018-06-19T06:54:50.558Z,99888.37
2018-06-19T06:57:19.260Z,99885.71
2018-06-19T06:59:47.963Z,99893.17
2018-06-19T07:02:16.757Z,99889.72
2018-06-19T07:04:45.453Z,99890.74
2018-06-19T07:07:14.145Z,99885.46
2018-06-19T07:09:42.832Z,99887.59
2018-06-19T07:12:11.661Z,99884.97
2018-06-19T07:14:40.373Z,99886.87
2018-06-19T07:17:09.277Z,99885.34
2018-06-19T07:19:38.081Z,99886.97
2018-06-19T07:22:06.350Z,99887.13
2018-06-19T07:24:35.047Z,99889.17
2018-06-19T07:27:03.781Z,99887.94
2018-06-19T07:29:32.486Z,99885.33
2018-06-19T07:32:01.418Z,99882.98
2018-06-19T07:34:30.167Z,99887.27
2018-06-19T07:36:58.905Z,99889.22
2018-06-19T07:39:27.666Z,99895.50
2018-06-19T07:41:56.566Z,99889.67
2018-06-19T07:44:25.357Z,99889.39
2018-06-19T07:46:54.082Z,99900.41
2018-06-19T07:49:23.249Z,99888.39
2018-06-19T07:51:51.956Z,99896.81
2018-06-19T07:54:20.683Z,99899.64
2018-06-19T07:56:49.442Z,99895.23
2018-06-19T07:59:18.154Z,99895.42
2018-06-19T08:01:47.253Z,99896.03
2018-06-19T08:04:15.986Z,99902.63
2018-06-19T08:06:44.670Z,99900.94
2018-06-19T08:09:13.486Z,99903.55
2018-06-19T08:11:42.169Z,99910.26
2018-06-19T08:14:10.888Z,99910.37
2018-06-19T08:16:39.640Z,99907.81
2018-06-19T08:19:08.358Z,99906.57
2018-06-19T08:21:37.091Z,99900.20
2018-06-19T08:24:05.798Z,99901.45
2018-06-19T08:26:34.515Z,99902.34
2018-06-19T08:29:03.255Z,99899.20
2018-06-19T08:31:31.992Z,99899.73
2018-06-19T08:34:00.678Z,99903.56
2018-06-19T08:36:29.377Z,99904.06
2018-06-19T08:38:58.074Z,99898.45
2018-06-19T08:41:26.814Z,99900.29
2018-06-19T08:43:55.501Z,99898.15
2018-06-19T08:46:24.202Z,99899.63
2018-06-19T08:48:52.904Z,99892.61
2018-06-19T08:51:21.839Z,99896.84
2018-06-19T08:53:50.614Z,99893.04
2018-06-19T08:56:19.370Z,99895.77
2018-06-19T08:58:48.079Z,99890.17
2018-06-19T09:01:16.814Z,99891.52
2018-06-19T09:03:45.534Z,99882.44
2018-06-19T09:06:14.499Z,99885.52
2018-06-19T09:08:43.234Z,99881.30
2018-06-19T09:11:11.925Z,99884.61
2018-06-19T09:13:40.629Z,99885.89
2018-06-19T09:16:09.352Z,99884.62
2018-06-19T09:18:38.312Z,99889.25
2018-06-19T09:21:08.318Z,99882.62
2018-06-19T09:23:37.427Z,99887.47
2018-06-19T09:26:06.642Z,99882.94
2018-06-19T09:28:35.471Z,99883.53
2018-06-19T09:31:04.242Z,99883.33
2018-06-19T09:33:32.988Z,99882.88
2018-06-19T09:36:01.687Z,99879.17
2018-06-19T09:38:30.511Z,99885.63
2018-06-19T09:40:59.234Z,99873.46
2018-06-19T09:43:27.954Z,99881.38
2018-06-19T09:45:56.791Z,99879.26
2018-06-19T09:48:25.518Z,99873.31
2018-06-19T09:50:54.241Z,99875.86
2018-06-19T09:53:23.013Z,99874.52
2018-06-19T09:55:51.753Z,99874.16
2018-06-19T09:58:20.493Z,99872.47
2018-06-19T10:00:49.221Z,99865.35
2018-06-19T10:03:17.912Z,99858.72
2018-06-19T10:05:46.749Z,99859.27
2018-06-19T10:08:15.449Z,99863.34
2018-06-19T10:10:44.137Z,99859.59
2018-06-19T10:13:12.833Z,99855.02
2018-06-19T10:15:41.545Z,99852.48
2018-06-19T10:18:10.237Z,99855.48
2018-06-19T10:20:39.037Z,99857.10
2018-06-19T10:23:07.887Z,99845.61
2018-06-19T10:25:36.594Z,99851.29
2018-06-19T10:28:05.396Z,99846.69
2018-06-19T10:30:34.085Z,99854.14
2018-06-19T10:33:02.902Z,99853.95
2018-06-19T10:35:31.597Z,99852.05
2018-06-19T10:38:00.291Z,99843.20
2018-06-19T10:40:28.998Z,99843.59
2018-06-19T10:42:57.710Z,99843.38
2018-06-19T10:45:26.409Z,99833.61
2018-06-19T10:47:55.149Z,99835.64
2018-06-19T10:50:23.913Z,99838.62
2018-06-19T10:52:52.625Z,99839.80
2018-06-19T10:55:21.358Z,99840.27
2018-06-19T10:57:50.053Z,99837.66
2018-06-19T11:00:19.217Z,99829.47
2018-06-19T11:02:48.404Z,99831.55
2018-06-19T11:05:17.122Z,99826.47
2018-06-19T11:07:45.856Z,99829.45
2018-06-19T11:10:14.621Z,99827.28
2018-06-19T11:12:43.897Z,99826.27
2018-06-19T11:15:12.661Z,99798.70
2018-06-19T11:17:41.412Z,99825.72
2018-06-19T11:20:10.269Z,99823.17
2018-06-19T11:22:39.160Z,99822.88
2018-06-19T11:25:08.019Z,99820.67
2018-06-19T11:27:36.737Z,99822.34
2018-06-19T11:30:05.767Z,99825.00
2018-06-19T11:32:34.465Z,99815.27
2018-06-19T11:35:03.202Z,99820.84
2018-06-19T11:37:31.901Z,99816.06
2018-06-19T11:40:00.594Z,99822.46
2018-06-19T11:42:29.301Z,99820.25
2018-06-19T11:44:58.031Z,99825.07
2018-06-19T11:47:26.822Z,99822.20
2018-06-19T11:49:55.525Z,99828.97
2018-06-19T11:52:24.283Z,99823.84
2018-06-19T11:54:53.243Z,99821.14
2018-06-19T11:57:21.955Z,99817.02
2018-06-19T11:59:50.683Z,99817.86
2018-06-19T12:02:19.463Z,99807.48
2018-06-19T12:04:48.217Z,99804.23
2018-06-19T12:07:16.942Z,99805.95
2018-06-19T12:09:45.652Z,99800.48
2018-06-19T12:12:14.390Z,99805.70
2018-06-19T12:14:45.045Z,99806.30
2018-06-19T12:17:14.813Z,99795.78
2018-06-19T12:19:43.570Z,99796.77
2018-06-19T12:22:12.274Z,99809.96
2018-06-19T12:24:40.987Z,99793.05
2018-06-19T12:27:09.678Z,99798.05
2018-06-19T12:29:38.442Z,99799.98
2018-06-19T12:32:07.155Z,99789.20
2018-06-19T12:34:35.874Z,99788.10
2018-06-19T12:37:04.567Z,99787.38
2018-06-19T12:39:33.282Z,99784.94
2018-06-19T12:42:02.022Z,99783.22
2018-06-19T12:44:30.717Z,99783.23
2018-06-19T12:46:59.433Z,99782.39
2018-06-19T12:49:39.242Z,99778.05
2018-06-19T12:52:19.868Z,99776.47
2018-06-19T12:55:57.322Z,99767.54
2018-06-19T12:58:26.021Z,99774.79
2018-06-19T13:00:54.715Z,99768.08
2018-06-19T13:03:34.473Z,99761.50
2018-06-19T13:06:14.156Z,99766.20
2018-06-19T13:08:42.873Z,99766.75
2018-06-19T13:11:11.576Z,99762.84
2018-06-19T13:13:51.371Z,99758.65
2018-06-19T13:16:31.145Z,99750.56
2018-06-19T13:19:10.970Z,99754.70
2018-06-19T13:21:39.689Z,99751.45
2018-06-19T13:24:08.432Z,99749.02
2018-06-19T13:26:37.137Z,99749.87
2018-06-19T13:29:45.253Z,99741.87
2018-06-19T13:32:14.022Z,99744.08
2018-06-19T13:34:42.799Z,99735.44
2018-06-19T13:37:11.533Z,99743.09
2018-06-19T13:39:40.853Z,99740.58
2018-06-19T13:42:22.098Z,99735.02
2018-06-19T13:44:59.968Z,99732.67
2018-06-19T13:47:28.696Z,99738.08
2018-06-19T13:49:57.406Z,99735.14
2018-06-19T13:52:27.009Z,99737.59
2018-06-19T13:56:08.002Z,99733.50
2018-06-19T13:58:37.582Z,99720.80
2018-06-19T14:01:06.699Z,99734.39
2018-06-19T14:03:35.494Z,99742.23
2018-06-19T14:06:04.196Z,99737.56
2018-06-19T14:08:45.892Z,99727.17
2018-06-19T14:11:25.947Z,99726.20
2018-06-19T14:13:54.670Z,99723.89
2018-06-19T14:16:23.391Z,99717.23
2018-06-19T14:18:52.116Z,99707.04
2018-06-19T14:21:20.881Z,99710.23
2018-06-19T14:23:49.573Z,99704.00
2018-06-19T14:26:18.273Z,99696.53
2018-06-19T14:28:47.021Z,99705.27
2018-06-19T14:31:15.742Z,99699.80
2018-06-19T14:33:44.489Z,99700.84
2018-06-19T14:36:13.197Z,99699.17
2018-06-19T14:38:41.932Z,99690.88
2018-06-19T14:41:10.654Z,99692.26
2018-06-19T14:43:39.413Z,99689.31
2018-06-19T14:46:08.133Z,99684.34
2018-06-19T14:48:36.842Z,99684.34
2018-06-19T14:51:05.701Z,99677.18
2018-06-19T14:53:34.485Z,99685.25
2018-06-19T14:56:03.310Z,99675.58
2018-06-19T14:58:32.019Z,99675.94
2018-06-19T15:01:00.800Z,99676.31
2018-06-19T15:03:29.506Z,99664.46
2018-06-19T15:05:58.429Z,99672.22
2018-06-19T15:08:27.165Z,99674.58
2018-06-19T15:10:55.924Z,99679.75
2018-06-19T15:13:24.631Z,99674.25
2018-06-19T15:15:53.351Z,99681.76
2018-06-19T15:18:22.144Z,99681.38
2018-06-19T15:20:50.924Z,99681.74
2018-06-19T15:23:19.646Z,99678.90
2018-06-19T15:25:48.371Z,99685.64
2018-06-19T15:28:17.123Z,99680.45
2018-06-19T15:30:45.872Z,99677.78
2018-06-19T15:33:14.733Z,99668.95
2018-06-19T15:35:43.446Z,99676.52
2018-06-19T15:38:12.141Z,99675.61
2018-06-19T15:40:40.861Z,99676.64
2018-06-19T15:43:09.613Z,99676.28
2018-06-19T15:45:38.343Z,99680.55
2018-06-19T15:48:07.087Z,99680.20
2018-06-19T15:50:35.788Z,99684.69
2018-06-19T15:53:04.647Z,99681.42
2018-06-19T15:55:33.361Z,99683.31
2018-06-19T15:58:02.261Z,99681.68
2018-06-19T16:00:31.107Z,99681.31
2018-06-19T16:03:00.024Z,99684.28
2018-06-19T16:05:28.822Z,99687.23
2018-06-19T16:08:02.672Z,99683.61
2018-06-19T16:10:31.539Z,99679.33
2018-06-19T16:13:00.238Z,99685.41
2018-06-19T16:15:28.982Z,99684.38
2018-06-19T16:17:57.676Z,99691.92
2018-06-19T16:20:26.423Z,99691.59
2018-06-19T16:22:55.157Z,99693.77
2018-06-19T16:25:23.869Z,99700.66
2018-06-19T16:27:52.553Z,99706.29
2018-06-19T16:30:21.271Z,99699.56
2018-06-19T16:32:49.999Z,99700.02
2018-06-19T16:35:18.750Z,99701.39
2018-06-19T16:37:47.505Z,99708.23
2018-06-19T16:40:16.282Z,99705.55
2018-06-19T16:42:45.020Z,99702.02
2018-06-19T16:45:13.734Z,99708.69
2018-06-19T16:47:42.454Z,99705.49
2018-06-19T16:50:11.185Z,99710.63
2018-06-19T16:52:39.986Z,99709.63
2018-06-19T16:55:08.722Z,99713.41
2018-06-19T16:57:37.472Z,99708.48
2018-06-19T17:00:07.163Z,99715.09
2018-06-19T17:02:35.901Z,99716.86
2018-06-19T17:05:04.613Z,99719.55
2018-06-19T17:07:33.332Z,99726.94
2018-06-19T17:10:02.038Z,99726.69
2018-06-19T17:12:30.822Z,99728.81
2018-06-19T17:14:59.538Z,99722.17
2018-06-19T17:17:28.298Z,99729.50
2018-06-19T17:19:57.275Z,99731.63
2018-06-19T17:22:26.010Z,99732.59
2018-06-19T17:24:54.727Z,99735.20
2018-06-19T17:27:23.481Z,99735.11
2018-06-19T17:29:52.166Z,99736.56
2018-06-19T17:32:21.015Z,99741.98
2018-06-19T17:34:49.725Z,99745.28
2018-06-19T17:37:18.622Z,99749.94
2018-06-19T17:39:47.346Z,99756.03
2018-06-19T17:42:21.500Z,99752.28
2018-06-19T17:44:50.355Z,99725.48
2018-06-19T17:47:19.137Z,99758.39
2018-06-19T17:49:47.829Z,99757.99
2018-06-19T17:52:16.584Z,99756.29
2018-06-19T17:54:45.416Z,99760.49
2018-06-19T17:57:14.184Z,99765.88
2018-06-19T17:59:43.530Z,99766.13
2018-06-19T18:02:12.481Z,99770.97
2018-06-19T18:04:41.423Z,99772.82
2018-06-19T18:07:10.301Z,99775.95
2018-06-19T18:09:39.071Z,99784.83
2018-06-19T18:12:07.796Z,99791.24
2018-06-19T18:14:36.514Z,99790.26
2018-06-19T18:17:05.485Z,99795.61
2018-06-19T18:19:34.571Z,99801.94
2018-06-19T18:22:05.243Z,99804.50
2018-06-19T18:24:37.170Z,99811.64
2018-06-19T18:27:12.816Z,99817.13
2018-06-19T18:29:48.137Z,99817.48
2018-06-19T18:32:21.788Z,99825.70
2018-06-19T18:34:56.264Z,99823.76
2018-06-19T18:37:31.507Z,99831.36
2018-06-19T18:40:00.938Z,99832.79
2018-06-19T18:42:31.983Z,99835.02
2018-06-19T18:45:01.371Z,99837.75
2018-06-19T18:47:30.338Z,99842.73
2018-06-19T18:49:59.208Z,99850.81
2018-06-19T18:52:28.474Z,99849.27
2018-06-19T18:54:57.363Z,99852.64
2018-06-19T18:57:26.413Z,99856.63
2018-06-19T18:59:55.550Z,99862.74
2018-06-19T19:02:26.431Z,99862.58
2018-06-19T19:04:55.578Z,99869.76
2018-06-19T19:07:25.299Z,99872.58
2018-06-19T19:10:00.686Z,99873.23
2018-06-19T19:12:31.368Z,99875.70
2018-06-19T19:15:06.697Z,99878.48
2018-06-19T19:17:40.703Z,99885.69
2018-06-19T19:20:10.253Z,99886.33
2018-06-19T19:22:39.023Z,99889.69
2018-06-19T19:25:07.811Z,99885.14
2018-06-19T19:27:41.680Z,99889.27
2018-06-19T19:30:10.994Z,99886.61
2018-06-19T19:32:39.769Z,99885.05
2018-06-19T19:35:08.525Z,99884.86
2018-06-19T19:37:42.833Z,99885.41
2018-06-19T19:40:12.018Z,99893.33
2018-06-19T19:42:41.631Z,99900.69
2018-06-19T19:45:11.625Z,99896.36
2018-06-19T19:47:46.195Z,99898.86
2018-06-19T19:50:15.115Z,99901.05
2018-06-19T19:52:43.854Z,99901.10
2018-06-19T19:55:12.603Z,99907.66
2018-06-19T19:57:46.429Z,99905.85
2018-06-19T20:00:19.269Z,99910.48
2018-06-19T20:02:48.759Z,99908.06
2018-06-19T20:05:17.475Z,99909.69
2018-06-19T20:07:46.164Z,99912.72
2018-06-19T20:10:15.131Z,99909.72
2018-06-19T20:12:43.837Z,99917.37
2018-06-19T20:15:13.374Z,99922.84
2018-06-19T20:17:42.188Z,99933.46
2018-06-19T20:20:11.863Z,99937.83
2018-06-19T20:22:40.750Z,99937.56
2018-06-19T20:25:09.909Z,99932.66
2018-06-19T20:27:38.722Z,99934.30
2018-06-19T20:30:08.579Z,99941.36
2018-06-19T20:32:37.314Z,99937.01
2018-06-19T20:35:06.068Z,99942.18
2018-06-19T20:37:34.796Z,99942.17
2018-06-19T20:40:03.542Z,99940.81
2018-06-19T20:42:32.269Z,99944.36
2018-06-19T20:45:01.202Z,99944.34
2018-06-19T20:47:30.545Z,99947.08
2018-06-19T20:49:59.599Z,99951.72
2018-06-19T20:52:28.337Z,99953.61
2018-06-19T20:54:57.087Z,99950.36
2018-06-19T20:57:25.820Z,99950.65
2018-06-19T20:59:54.553Z,99954.17
2018-06-19T21:02:23.276Z,99953.64
2018-06-19T21:04:52.050Z,99951.17
2018-06-19T21:07:20.807Z,99956.89
2018-06-19T21:09:49.524Z,99956.63
2018-06-19T21:12:18.234Z,99960.72
2018-06-19T21:14:46.968Z,99957.47
2018-06-19T21:17:15.713Z,99956.67
2018-06-19T21:19:44.439Z,99956.95
2018-06-19T21:22:13.172Z,99960.47
2018-06-19T21:24:41.895Z,99959.39
2018-06-19T21:27:10.623Z,99958.86
2018-06-19T21:29:39.357Z,99963.73
2018-06-19T21:32:08.412Z,99963.48
2018-06-19T21:34:37.190Z,99966.45
2018-06-19T21:37:06.084Z,99963.46
2018-06-19T21:39:34.819Z,99965.13
2018-06-19T21:42:03.546Z,99959.67
2018-06-19T21:44:32.269Z,99969.72
2018-06-19T21:47:00.982Z,99962.94
2018-06-19T21:49:29.718Z,99962.92
2018-06-19T21:51:58.425Z,99964.58
2018-06-19T21:54:27.164Z,99969.98
2018-06-19T21:56:55.869Z,99968.86
2018-06-19T21:59:24.575Z,99975.11
2018-06-19T22:01:53.269Z,99967.52
2018-06-19T22:04:21.961Z,99976.47
2018-06-19T22:06:50.690Z,99980.28
2018-06-19T22:09:19.405Z,99974.30
2018-06-19T22:11:48.177Z,99981.38
2018-06-19T22:14:16.917Z,99981.31
2018-06-19T22:16:45.651Z,99985.37
2018-06-19T22:19:14.353Z,99981.57
2018-06-19T22:21:43.070Z,99981.34
2018-06-19T22:24:11.794Z,99980.80
2018-06-19T22:26:40.647Z,99982.67
2018-06-19T22:29:09.333Z,99985.11
2018-06-19T22:31:38.054Z,99978.27
2018-06-19T22:34:06.798Z,99979.31
2018-06-19T22:36:35.513Z,99981.48
2018-06-19T22:39:05.957Z,99992.31
2018-06-19T22:41:34.690Z,100003.66
2018-06-19T22:44:03.440Z,99997.14
2018-06-19T22:46:32.166Z,99995.75
2018-06-19T22:49:01.062Z,100003.83
2018-06-19T22:51:29.797Z,100000.53
2018-06-19T22:53:58.535Z,100005.41
2018-06-19T22:56:27.337Z,100006.23
2018-06-19T22:58:56.073Z,99997.58
2018-06-19T23:01:24.831Z,99998.39
2018-06-19T23:03:53.602Z,99995.75
2018-06-19T23:06:22.340Z,100000.47
2018-06-19T23:08:51.187Z,100002.61
2018-06-19T23:11:19.932Z,99997.14
2018-06-19T23:13:48.634Z,100004.88
2018-06-19T23:16:17.433Z,100007.52
2018-06-19T23:18:46.157Z,100010.53
2018-06-19T23:21:14.869Z,100008.00
2018-06-19T23:23:43.565Z,100003.39
2018-06-19T23:26:12.316Z,100004.69
2018-06-19T23:28:41.054Z,100009.04
2018-06-19T23:31:09.794Z,100004.12
2018-06-19T23:33:38.603Z,99999.27
2018-06-19T23:36:07.577Z,100000.36
2018-06-19T23:38:36.402Z,100004.39
2018-06-19T23:41:05.169Z,100003.61
2018-06-19T23:43:33.881Z,100003.62
2018-06-19T23:46:02.595Z,100000.69
2018-06-19T23:48:31.300Z,100003.58
2018-06-19T23:51:00.039Z,99996.19
2018-06-19T23:53:28.770Z,99999.17
2018-06-19T23:55:57.474Z,99997.50
2018-06-19T23:58:26.223Z,99996.59
